sensor_id;sensor_type;location;lat;lon;timestamp;temperature;humidity
3644;DHT22;1838;50.742;7.158;2023-11-19T00:00:30;11.60;99.90
3644;DHT22;1838;50.742;7.158;2023-11-19T00:02:55;11.60;99.90
3644;DHT22;1838;50.742;7.158;2023-11-19T00:05:21;11.60;99.90
3644;DHT22;1838;50.742;7.158;2023-11-19T00:07:46;11.70;99.90
3644;DHT22;1838;50.742;7.158;2023-11-19T00:10:13;11.60;99.90
3644;DHT22;1838;50.742;7.158;2023-11-19T00:12:43;11.60;99.90
3644;DHT22;1838;50.742;7.158;2023-11-19T00:15:10;11.70;99.90
3644;DHT22;1838;50.742;7.158;2023-11-19T00:17:42;11.70;99.90
3644;DHT22;1838;50.742;7.158;2023-11-19T00:20:13;11.70;99.90
3644;DHT22;1838;50.742;7.158;2023-11-19T00:22:39;11.70;99.90
3644;DHT22;1838;50.742;7.158;2023-11-19T00:25:05;11.70;99.90
3644;DHT22;1838;50.742;7.158;2023-11-19T00:27:31;11.70;99.90
3644;DHT22;1838;50.742;7.158;2023-11-19T00:29:57;11.70;99.90
3644;DHT22;1838;50.742;7.158;2023-11-19T00:32:22;11.70;99.90
3644;DHT22;1838;50.742;7.158;2023-11-19T00:34:48;11.70;99.90
3644;DHT22;1838;50.742;7.158;2023-11-19T00:37:14;11.60;99.90
3644;DHT22;1838;50.742;7.158;2023-11-19T00:39:43;11.60;99.90
3644;DHT22;1838;50.742;7.158;2023-11-19T00:42:09;11.60;99.90
3644;DHT22;1838;50.742;7.158;2023-11-19T00:44:38;11.70;99.90
3644;DHT22;1838;50.742;7.158;2023-11-19T00:47:04;11.60;99.90
3644;DHT22;1838;50.742;7.158;2023-11-19T00:49:30;11.60;99.90
3644;DHT22;1838;50.742;7.158;2023-11-19T00:51:58;11.70;99.90
3644;DHT22;1838;50.742;7.158;2023-11-19T00:54:24;11.70;99.90
3644;DHT22;1838;50.742;7.158;2023-11-19T00:56:54;11.60;99.90
3644;DHT22;1838;50.742;7.158;2023-11-19T00:59:19;11.70;99.90
3644;DHT22;1838;50.742;7.158;2023-11-19T01:01:45;11.70;99.90
3644;DHT22;1838;50.742;7.158;2023-11-19T01:04:11;11.70;99.90
3644;DHT22;1838;50.742;7.158;2023-11-19T01:06:36;11.80;99.90
3644;DHT22;1838;50.742;7.158;2023-11-19T01:09:02;11.80;99.90
3644;DHT22;1838;50.742;7.158;2023-11-19T01:11:27;11.80;99.90
3644;DHT22;1838;50.742;7.158;2023-11-19T01:13:53;11.80;99.90
3644;DHT22;1838;50.742;7.158;2023-11-19T01:16:19;11.80;99.90
3644;DHT22;1838;50.742;7.158;2023-11-19T01:18:49;11.80;99.90
3644;DHT22;1838;50.742;7.158;2023-11-19T01:21:15;11.80;99.90
3644;DHT22;1838;50.742;7.158;2023-11-19T01:23:44;11.80;99.90
3644;DHT22;1838;50.742;7.158;2023-11-19T01:26:10;11.80;99.90
3644;DHT22;1838;50.742;7.158;2023-11-19T01:28:36;11.80;99.90
3644;DHT22;1838;50.742;7.158;2023-11-19T01:31:02;11.80;99.90
3644;DHT22;1838;50.742;7.158;2023-11-19T01:33:28;11.80;99.90
3644;DHT22;1838;50.742;7.158;2023-11-19T01:35:54;11.90;99.90
3644;DHT22;1838;50.742;7.158;2023-11-19T01:38:19;11.90;99.90
3644;DHT22;1838;50.742;7.158;2023-11-19T01:40:45;11.90;99.90
3644;DHT22;1838;50.742;7.158;2023-11-19T01:43:11;11.90;99.90
3644;DHT22;1838;50.742;7.158;2023-11-19T01:45:37;11.90;99.90
3644;DHT22;1838;50.742;7.158;2023-11-19T01:48:04;11.90;99.90
3644;DHT22;1838;50.742;7.158;2023-11-19T01:50:30;11.90;99.90
3644;DHT22;1838;50.742;7.158;2023-11-19T01:52:57;12.00;99.90
3644;DHT22;1838;50.742;7.158;2023-11-19T01:55:24;12.00;99.90
3644;DHT22;1838;50.742;7.158;2023-11-19T01:57:51;12.00;99.90
3644;DHT22;1838;50.742;7.158;2023-11-19T02:00:18;12.00;99.90
3644;DHT22;1838;50.742;7.158;2023-11-19T02:02:46;12.10;99.90
3644;DHT22;1838;50.742;7.158;2023-11-19T02:05:12;12.10;99.90
3644;DHT22;1838;50.742;7.158;2023-11-19T02:07:38;12.10;99.90
3644;DHT22;1838;50.742;7.158;2023-11-19T02:10:04;12.10;99.90
3644;DHT22;1838;50.742;7.158;2023-11-19T02:12:31;12.20;99.90
3644;DHT22;1838;50.742;7.158;2023-11-19T02:14:59;12.20;99.90
3644;DHT22;1838;50.742;7.158;2023-11-19T02:17:34;12.20;99.90
3644;DHT22;1838;50.742;7.158;2023-11-19T02:20:06;12.20;99.90
3644;DHT22;1838;50.742;7.158;2023-11-19T02:22:34;12.20;99.90
3644;DHT22;1838;50.742;7.158;2023-11-19T02:25:04;12.20;99.90
3644;DHT22;1838;50.742;7.158;2023-11-19T02:27:57;12.20;99.90
3644;DHT22;1838;50.742;7.158;2023-11-19T02:30:24;12.30;99.90
3644;DHT22;1838;50.742;7.158;2023-11-19T02:32:56;12.30;99.90
3644;DHT22;1838;50.742;7.158;2023-11-19T02:35:24;12.30;99.90
3644;DHT22;1838;50.742;7.158;2023-11-19T02:37:49;12.30;99.90
3644;DHT22;1838;50.742;7.158;2023-11-19T02:40:15;12.30;99.90
3644;DHT22;1838;50.742;7.158;2023-11-19T02:42:41;12.40;99.90
3644;DHT22;1838;50.742;7.158;2023-11-19T02:45:07;12.40;99.90
3644;DHT22;1838;50.742;7.158;2023-11-19T02:47:33;12.40;99.90
3644;DHT22;1838;50.742;7.158;2023-11-19T02:49:59;12.40;99.90
3644;DHT22;1838;50.742;7.158;2023-11-19T02:52:25;12.40;99.90
3644;DHT22;1838;50.742;7.158;2023-11-19T02:54:51;12.40;99.90
3644;DHT22;1838;50.742;7.158;2023-11-19T02:57:17;12.40;99.90
3644;DHT22;1838;50.742;7.158;2023-11-19T02:59:45;12.30;99.90
3644;DHT22;1838;50.742;7.158;2023-11-19T03:02:10;12.40;99.90
3644;DHT22;1838;50.742;7.158;2023-11-19T03:04:37;12.40;99.90
3644;DHT22;1838;50.742;7.158;2023-11-19T03:07:07;12.40;99.90
3644;DHT22;1838;50.742;7.158;2023-11-19T03:09:33;12.40;99.90
3644;DHT22;1838;50.742;7.158;2023-11-19T03:12:00;12.50;99.90
3644;DHT22;1838;50.742;7.158;2023-11-19T03:14:26;12.50;99.90
3644;DHT22;1838;50.742;7.158;2023-11-19T03:16:52;12.50;99.90
3644;DHT22;1838;50.742;7.158;2023-11-19T03:19:17;12.50;99.90
3644;DHT22;1838;50.742;7.158;2023-11-19T03:21:43;12.50;99.90
3644;DHT22;1838;50.742;7.158;2023-11-19T03:24:10;12.50;99.90
3644;DHT22;1838;50.742;7.158;2023-11-19T03:26:35;12.50;99.90
3644;DHT22;1838;50.742;7.158;2023-11-19T03:29:02;12.50;99.90
3644;DHT22;1838;50.742;7.158;2023-11-19T03:31:28;12.50;99.90
3644;DHT22;1838;50.742;7.158;2023-11-19T03:33:54;12.50;99.90
3644;DHT22;1838;50.742;7.158;2023-11-19T03:36:19;12.50;99.90
3644;DHT22;1838;50.742;7.158;2023-11-19T03:38:45;12.50;99.90
3644;DHT22;1838;50.742;7.158;2023-11-19T03:41:11;12.50;99.90
3644;DHT22;1838;50.742;7.158;2023-11-19T03:43:38;12.50;99.90
3644;DHT22;1838;50.742;7.158;2023-11-19T03:46:03;12.50;99.90
3644;DHT22;1838;50.742;7.158;2023-11-19T03:48:30;12.50;99.90
3644;DHT22;1838;50.742;7.158;2023-11-19T03:50:56;12.50;99.90
3644;DHT22;1838;50.742;7.158;2023-11-19T03:53:21;12.50;99.90
3644;DHT22;1838;50.742;7.158;2023-11-19T03:55:47;12.50;99.90
3644;DHT22;1838;50.742;7.158;2023-11-19T03:58:12;12.60;99.90
3644;DHT22;1838;50.742;7.158;2023-11-19T04:00:38;12.60;99.90
3644;DHT22;1838;50.742;7.158;2023-11-19T04:03:03;12.60;99.90
3644;DHT22;1838;50.742;7.158;2023-11-19T04:05:30;12.60;99.90
3644;DHT22;1838;50.742;7.158;2023-11-19T04:07:55;12.70;99.90
3644;DHT22;1838;50.742;7.158;2023-11-19T04:10:21;12.70;99.90
3644;DHT22;1838;50.742;7.158;2023-11-19T04:12:47;12.70;99.90
3644;DHT22;1838;50.742;7.158;2023-11-19T04:15:14;12.80;99.90
3644;DHT22;1838;50.742;7.158;2023-11-19T04:17:39;12.90;99.90
3644;DHT22;1838;50.742;7.158;2023-11-19T04:20:05;12.90;99.90
3644;DHT22;1838;50.742;7.158;2023-11-19T04:22:31;13.00;99.90
3644;DHT22;1838;50.742;7.158;2023-11-19T04:24:57;13.10;99.90
3644;DHT22;1838;50.742;7.158;2023-11-19T04:27:22;13.20;99.90
3644;DHT22;1838;50.742;7.158;2023-11-19T04:29:48;13.20;99.90
3644;DHT22;1838;50.742;7.158;2023-11-19T04:32:14;13.20;99.90
3644;DHT22;1838;50.742;7.158;2023-11-19T04:34:39;13.30;99.90
3644;DHT22;1838;50.742;7.158;2023-11-19T04:37:05;13.30;99.90
3644;DHT22;1838;50.742;7.158;2023-11-19T04:39:30;13.30;99.90
3644;DHT22;1838;50.742;7.158;2023-11-19T04:41:56;13.30;99.90
3644;DHT22;1838;50.742;7.158;2023-11-19T04:44:21;13.20;99.90
3644;DHT22;1838;50.742;7.158;2023-11-19T04:46:47;13.20;99.90
3644;DHT22;1838;50.742;7.158;2023-11-19T04:49:13;13.20;99.90
3644;DHT22;1838;50.742;7.158;2023-11-19T04:51:44;13.20;99.90
3644;DHT22;1838;50.742;7.158;2023-11-19T04:54:12;13.20;99.90
3644;DHT22;1838;50.742;7.158;2023-11-19T04:56:38;13.20;99.90
3644;DHT22;1838;50.742;7.158;2023-11-19T04:59:04;13.20;99.90
3644;DHT22;1838;50.742;7.158;2023-11-19T05:01:33;13.20;99.90
3644;DHT22;1838;50.742;7.158;2023-11-19T05:03:59;13.10;99.90
3644;DHT22;1838;50.742;7.158;2023-11-19T05:06:26;13.10;99.90
3644;DHT22;1838;50.742;7.158;2023-11-19T05:08:53;13.10;99.90
3644;DHT22;1838;50.742;7.158;2023-11-19T05:11:19;13.10;99.90
3644;DHT22;1838;50.742;7.158;2023-11-19T05:13:45;13.20;99.90
3644;DHT22;1838;50.742;7.158;2023-11-19T05:16:11;13.20;99.90
3644;DHT22;1838;50.742;7.158;2023-11-19T05:18:39;13.20;99.90
3644;DHT22;1838;50.742;7.158;2023-11-19T05:21:05;13.20;99.90
3644;DHT22;1838;50.742;7.158;2023-11-19T05:23:32;13.10;99.90
3644;DHT22;1838;50.742;7.158;2023-11-19T05:25:59;13.10;99.90
3644;DHT22;1838;50.742;7.158;2023-11-19T05:28:25;13.10;99.90
3644;DHT22;1838;50.742;7.158;2023-11-19T05:30:51;13.10;99.90
3644;DHT22;1838;50.742;7.158;2023-11-19T05:33:17;13.00;99.90
3644;DHT22;1838;50.742;7.158;2023-11-19T05:35:42;13.00;99.90
3644;DHT22;1838;50.742;7.158;2023-11-19T05:38:08;13.00;99.90
3644;DHT22;1838;50.742;7.158;2023-11-19T05:40:35;12.90;99.90
3644;DHT22;1838;50.742;7.158;2023-11-19T05:43:00;12.90;99.90
3644;DHT22;1838;50.742;7.158;2023-11-19T05:45:26;12.90;99.90
3644;DHT22;1838;50.742;7.158;2023-11-19T05:47:51;12.80;99.90
3644;DHT22;1838;50.742;7.158;2023-11-19T05:50:18;12.70;99.90
3644;DHT22;1838;50.742;7.158;2023-11-19T05:52:43;12.70;99.90
3644;DHT22;1838;50.742;7.158;2023-11-19T05:55:09;12.70;99.90
3644;DHT22;1838;50.742;7.158;2023-11-19T05:57:36;12.70;99.90
3644;DHT22;1838;50.742;7.158;2023-11-19T06:00:03;12.60;99.90
3644;DHT22;1838;50.742;7.158;2023-11-19T06:02:32;12.70;99.90
3644;DHT22;1838;50.742;7.158;2023-11-19T06:04:58;12.60;99.90
3644;DHT22;1838;50.742;7.158;2023-11-19T06:07:23;12.60;99.90
3644;DHT22;1838;50.742;7.158;2023-11-19T06:09:50;12.50;99.90
3644;DHT22;1838;50.742;7.158;2023-11-19T06:12:15;12.50;99.90
3644;DHT22;1838;50.742;7.158;2023-11-19T06:14:41;12.50;99.90
3644;DHT22;1838;50.742;7.158;2023-11-19T06:17:07;12.50;99.90
3644;DHT22;1838;50.742;7.158;2023-11-19T06:19:33;12.50;99.90
3644;DHT22;1838;50.742;7.158;2023-11-19T06:21:59;12.60;99.90
3644;DHT22;1838;50.742;7.158;2023-11-19T06:24:25;12.60;99.90
3644;DHT22;1838;50.742;7.158;2023-11-19T06:26:50;12.60;99.90
3644;DHT22;1838;50.742;7.158;2023-11-19T06:29:16;12.60;99.90
3644;DHT22;1838;50.742;7.158;2023-11-19T06:31:44;12.60;99.90
3644;DHT22;1838;50.742;7.158;2023-11-19T06:34:10;12.70;99.90
3644;DHT22;1838;50.742;7.158;2023-11-19T06:36:35;12.80;99.90
3644;DHT22;1838;50.742;7.158;2023-11-19T06:39:01;12.80;99.90
3644;DHT22;1838;50.742;7.158;2023-11-19T06:41:27;12.90;99.90
3644;DHT22;1838;50.742;7.158;2023-11-19T06:43:54;12.80;99.90
3644;DHT22;1838;50.742;7.158;2023-11-19T06:46:20;12.90;99.90
3644;DHT22;1838;50.742;7.158;2023-11-19T06:48:46;12.90;99.90
3644;DHT22;1838;50.742;7.158;2023-11-19T06:51:12;12.90;99.90
3644;DHT22;1838;50.742;7.158;2023-11-19T06:53:38;12.90;99.90
3644;DHT22;1838;50.742;7.158;2023-11-19T06:56:05;12.80;99.90
3644;DHT22;1838;50.742;7.158;2023-11-19T06:58:32;12.80;99.90
3644;DHT22;1838;50.742;7.158;2023-11-19T07:01:00;12.80;99.90
3644;DHT22;1838;50.742;7.158;2023-11-19T07:03:26;12.70;99.90
3644;DHT22;1838;50.742;7.158;2023-11-19T07:05:51;12.70;99.90
3644;DHT22;1838;50.742;7.158;2023-11-19T07:08:17;12.70;99.90
3644;DHT22;1838;50.742;7.158;2023-11-19T07:10:42;12.70;99.90
3644;DHT22;1838;50.742;7.158;2023-11-19T07:13:08;12.70;99.90
3644;DHT22;1838;50.742;7.158;2023-11-19T07:15:33;12.70;99.90
3644;DHT22;1838;50.742;7.158;2023-11-19T07:17:59;12.60;99.90
3644;DHT22;1838;50.742;7.158;2023-11-19T07:20:25;12.60;99.90
3644;DHT22;1838;50.742;7.158;2023-11-19T07:22:53;12.60;99.90
3644;DHT22;1838;50.742;7.158;2023-11-19T07:25:20;12.50;99.90
3644;DHT22;1838;50.742;7.158;2023-11-19T07:27:45;12.50;99.90
3644;DHT22;1838;50.742;7.158;2023-11-19T07:30:12;12.50;99.90
3644;DHT22;1838;50.742;7.158;2023-11-19T07:32:38;12.50;99.90
3644;DHT22;1838;50.742;7.158;2023-11-19T07:35:04;12.40;99.90
3644;DHT22;1838;50.742;7.158;2023-11-19T07:37:31;12.40;99.90
3644;DHT22;1838;50.742;7.158;2023-11-19T07:39:56;12.50;99.90
3644;DHT22;1838;50.742;7.158;2023-11-19T07:42:22;12.40;99.90
3644;DHT22;1838;50.742;7.158;2023-11-19T07:44:48;12.40;99.90
3644;DHT22;1838;50.742;7.158;2023-11-19T07:47:13;12.50;99.90
3644;DHT22;1838;50.742;7.158;2023-11-19T07:49:39;12.50;99.90
3644;DHT22;1838;50.742;7.158;2023-11-19T07:52:04;12.50;99.90
3644;DHT22;1838;50.742;7.158;2023-11-19T07:54:30;12.50;99.90
3644;DHT22;1838;50.742;7.158;2023-11-19T07:56:55;12.60;99.90
3644;DHT22;1838;50.742;7.158;2023-11-19T07:59:21;12.70;99.90
3644;DHT22;1838;50.742;7.158;2023-11-19T08:01:47;12.70;99.90
3644;DHT22;1838;50.742;7.158;2023-11-19T08:04:13;12.70;99.90
3644;DHT22;1838;50.742;7.158;2023-11-19T08:06:39;12.90;99.90
3644;DHT22;1838;50.742;7.158;2023-11-19T08:09:05;13.00;99.90
3644;DHT22;1838;50.742;7.158;2023-11-19T08:11:31;13.00;99.90
3644;DHT22;1838;50.742;7.158;2023-11-19T08:13:56;13.00;99.90
3644;DHT22;1838;50.742;7.158;2023-11-19T08:16:22;13.10;99.90
3644;DHT22;1838;50.742;7.158;2023-11-19T08:18:48;13.10;99.90
3644;DHT22;1838;50.742;7.158;2023-11-19T08:21:13;13.10;99.90
3644;DHT22;1838;50.742;7.158;2023-11-19T08:23:39;13.10;99.90
3644;DHT22;1838;50.742;7.158;2023-11-19T08:26:05;13.10;99.90
3644;DHT22;1838;50.742;7.158;2023-11-19T08:28:31;13.10;99.90
3644;DHT22;1838;50.742;7.158;2023-11-19T08:30:56;13.20;99.90
3644;DHT22;1838;50.742;7.158;2023-11-19T08:33:22;13.10;99.90
3644;DHT22;1838;50.742;7.158;2023-11-19T08:35:48;13.20;99.90
3644;DHT22;1838;50.742;7.158;2023-11-19T08:38:13;13.20;99.90
3644;DHT22;1838;50.742;7.158;2023-11-19T08:40:39;13.10;99.90
3644;DHT22;1838;50.742;7.158;2023-11-19T08:43:04;13.20;99.90
3644;DHT22;1838;50.742;7.158;2023-11-19T08:45:30;13.10;99.90
3644;DHT22;1838;50.742;7.158;2023-11-19T08:47:57;13.10;99.90
3644;DHT22;1838;50.742;7.158;2023-11-19T08:50:22;13.10;99.90
3644;DHT22;1838;50.742;7.158;2023-11-19T08:52:49;13.20;99.90
3644;DHT22;1838;50.742;7.158;2023-11-19T08:55:14;13.20;99.90
3644;DHT22;1838;50.742;7.158;2023-11-19T08:57:40;13.20;99.90
3644;DHT22;1838;50.742;7.158;2023-11-19T09:00:06;13.20;99.90
3644;DHT22;1838;50.742;7.158;2023-11-19T09:02:37;13.20;99.90
3644;DHT22;1838;50.742;7.158;2023-11-19T09:05:04;13.30;99.90
3644;DHT22;1838;50.742;7.158;2023-11-19T09:07:29;13.30;99.90
3644;DHT22;1838;50.742;7.158;2023-11-19T09:09:55;13.30;99.90
3644;DHT22;1838;50.742;7.158;2023-11-19T09:12:20;13.30;99.90
3644;DHT22;1838;50.742;7.158;2023-11-19T09:14:46;13.30;99.90
3644;DHT22;1838;50.742;7.158;2023-11-19T09:17:11;13.30;99.90
3644;DHT22;1838;50.742;7.158;2023-11-19T09:19:37;13.30;99.90
3644;DHT22;1838;50.742;7.158;2023-11-19T09:22:03;13.20;99.90
3644;DHT22;1838;50.742;7.158;2023-11-19T09:24:29;13.30;99.90
3644;DHT22;1838;50.742;7.158;2023-11-19T09:26:54;13.30;99.90
3644;DHT22;1838;50.742;7.158;2023-11-19T09:29:21;13.30;99.90
3644;DHT22;1838;50.742;7.158;2023-11-19T09:31:47;13.30;99.90
3644;DHT22;1838;50.742;7.158;2023-11-19T09:34:12;13.30;99.90
3644;DHT22;1838;50.742;7.158;2023-11-19T09:36:38;13.40;99.90
3644;DHT22;1838;50.742;7.158;2023-11-19T09:39:08;13.50;99.90
3644;DHT22;1838;50.742;7.158;2023-11-19T09:41:34;13.40;99.90
3644;DHT22;1838;50.742;7.158;2023-11-19T09:44:00;13.40;99.90
3644;DHT22;1838;50.742;7.158;2023-11-19T09:46:26;13.40;99.90
3644;DHT22;1838;50.742;7.158;2023-11-19T09:48:56;13.40;99.90
3644;DHT22;1838;50.742;7.158;2023-11-19T09:51:23;13.50;99.90
3644;DHT22;1838;50.742;7.158;2023-11-19T09:53:49;13.50;99.90
3644;DHT22;1838;50.742;7.158;2023-11-19T09:56:15;13.60;99.90
3644;DHT22;1838;50.742;7.158;2023-11-19T09:58:42;13.70;99.90
3644;DHT22;1838;50.742;7.158;2023-11-19T10:01:08;13.80;99.90
3644;DHT22;1838;50.742;7.158;2023-11-19T10:03:36;13.80;99.90
3644;DHT22;1838;50.742;7.158;2023-11-19T10:06:06;13.80;99.90
3644;DHT22;1838;50.742;7.158;2023-11-19T10:08:32;13.90;99.90
3644;DHT22;1838;50.742;7.158;2023-11-19T10:10:57;14.00;99.90
3644;DHT22;1838;50.742;7.158;2023-11-19T10:13:28;14.00;99.90
3644;DHT22;1838;50.742;7.158;2023-11-19T10:15:55;14.00;99.90
3644;DHT22;1838;50.742;7.158;2023-11-19T10:18:28;14.20;99.90
3644;DHT22;1838;50.742;7.158;2023-11-19T10:20:54;14.20;99.90
3644;DHT22;1838;50.742;7.158;2023-11-19T10:23:20;14.30;99.90
3644;DHT22;1838;50.742;7.158;2023-11-19T10:25:46;14.40;99.90
3644;DHT22;1838;50.742;7.158;2023-11-19T10:28:11;14.50;99.90
3644;DHT22;1838;50.742;7.158;2023-11-19T10:30:41;14.60;99.90
3644;DHT22;1838;50.742;7.158;2023-11-19T10:33:09;14.60;99.90
3644;DHT22;1838;50.742;7.158;2023-11-19T10:35:55;14.70;99.90
3644;DHT22;1838;50.742;7.158;2023-11-19T10:38:27;14.70;99.90
3644;DHT22;1838;50.742;7.158;2023-11-19T10:40:54;14.70;99.90
3644;DHT22;1838;50.742;7.158;2023-11-19T10:43:22;14.80;99.90
3644;DHT22;1838;50.742;7.158;2023-11-19T10:45:48;14.90;99.90
3644;DHT22;1838;50.742;7.158;2023-11-19T10:48:14;15.00;99.90
3644;DHT22;1838;50.742;7.158;2023-11-19T10:50:42;15.10;99.90
3644;DHT22;1838;50.742;7.158;2023-11-19T10:53:10;15.10;99.90
3644;DHT22;1838;50.742;7.158;2023-11-19T10:55:37;15.20;99.90
3644;DHT22;1838;50.742;7.158;2023-11-19T10:58:05;15.20;99.90
3644;DHT22;1838;50.742;7.158;2023-11-19T11:00:51;15.20;99.90
3644;DHT22;1838;50.742;7.158;2023-11-19T11:03:21;15.20;99.90
3644;DHT22;1838;50.742;7.158;2023-11-19T11:05:51;15.40;99.90
3644;DHT22;1838;50.742;7.158;2023-11-19T11:08:18;15.50;99.90
3644;DHT22;1838;50.742;7.158;2023-11-19T11:10:55;15.50;99.90
3644;DHT22;1838;50.742;7.158;2023-11-19T11:13:22;15.60;99.90
3644;DHT22;1838;50.742;7.158;2023-11-19T11:15:50;15.60;99.90
3644;DHT22;1838;50.742;7.158;2023-11-19T11:18:16;15.70;99.90
3644;DHT22;1838;50.742;7.158;2023-11-19T11:20:44;15.70;99.90
3644;DHT22;1838;50.742;7.158;2023-11-19T11:26:15;15.70;99.90
3644;DHT22;1838;50.742;7.158;2023-11-19T11:28:48;15.70;99.90
3644;DHT22;1838;50.742;7.158;2023-11-19T11:34:06;15.60;99.90
3644;DHT22;1838;50.742;7.158;2023-11-19T11:37:03;15.60;99.90
3644;DHT22;1838;50.742;7.158;2023-11-19T11:39:32;15.60;99.90
3644;DHT22;1838;50.742;7.158;2023-11-19T11:50:14;15.20;99.90
3644;DHT22;1838;50.742;7.158;2023-11-19T11:55:37;15.20;99.90
3644;DHT22;1838;50.742;7.158;2023-11-19T11:58:04;15.20;99.90
3644;DHT22;1838;50.742;7.158;2023-11-19T12:00:38;15.20;99.90
3644;DHT22;1838;50.742;7.158;2023-11-19T12:03:04;15.20;99.90
3644;DHT22;1838;50.742;7.158;2023-11-19T12:05:30;15.20;99.90
3644;DHT22;1838;50.742;7.158;2023-11-19T12:08:01;15.10;99.90
3644;DHT22;1838;50.742;7.158;2023-11-19T12:10:31;14.90;99.90
3644;DHT22;1838;50.742;7.158;2023-11-19T12:13:01;15.00;99.90
3644;DHT22;1838;50.742;7.158;2023-11-19T12:15:27;15.00;99.90
3644;DHT22;1838;50.742;7.158;2023-11-19T12:17:54;15.00;99.90
3644;DHT22;1838;50.742;7.158;2023-11-19T12:20:24;15.00;99.90
3644;DHT22;1838;50.742;7.158;2023-11-19T12:22:51;15.10;99.90
3644;DHT22;1838;50.742;7.158;2023-11-19T12:25:18;15.10;99.90
3644;DHT22;1838;50.742;7.158;2023-11-19T12:27:51;15.20;99.90
3644;DHT22;1838;50.742;7.158;2023-11-19T12:30:24;15.20;99.90
3644;DHT22;1838;50.742;7.158;2023-11-19T12:32:50;15.20;99.90
3644;DHT22;1838;50.742;7.158;2023-11-19T12:35:16;15.30;99.90
3644;DHT22;1838;50.742;7.158;2023-11-19T12:37:43;15.30;99.90
3644;DHT22;1838;50.742;7.158;2023-11-19T12:40:13;15.30;99.90
3644;DHT22;1838;50.742;7.158;2023-11-19T12:42:39;15.30;99.90
3644;DHT22;1838;50.742;7.158;2023-11-19T12:45:05;15.30;99.90
3644;DHT22;1838;50.742;7.158;2023-11-19T12:47:31;15.20;99.90
3644;DHT22;1838;50.742;7.158;2023-11-19T12:49:57;15.20;99.90
3644;DHT22;1838;50.742;7.158;2023-11-19T12:52:23;15.10;99.90
3644;DHT22;1838;50.742;7.158;2023-11-19T12:54:49;15.10;99.90
3644;DHT22;1838;50.742;7.158;2023-11-19T12:57:15;15.10;99.90
3644;DHT22;1838;50.742;7.158;2023-11-19T12:59:41;15.10;99.90
3644;DHT22;1838;50.742;7.158;2023-11-19T13:02:07;15.10;99.90
3644;DHT22;1838;50.742;7.158;2023-11-19T13:04:33;15.10;99.90
3644;DHT22;1838;50.742;7.158;2023-11-19T13:06:59;15.10;99.90
3644;DHT22;1838;50.742;7.158;2023-11-19T13:09:26;15.10;99.90
3644;DHT22;1838;50.742;7.158;2023-11-19T13:11:53;15.00;99.90
3644;DHT22;1838;50.742;7.158;2023-11-19T13:14:19;14.90;99.90
3644;DHT22;1838;50.742;7.158;2023-11-19T13:16:45;14.80;99.90
3644;DHT22;1838;50.742;7.158;2023-11-19T13:19:12;14.80;99.90
3644;DHT22;1838;50.742;7.158;2023-11-19T13:21:38;14.70;99.90
3644;DHT22;1838;50.742;7.158;2023-11-19T13:24:05;14.70;99.90
3644;DHT22;1838;50.742;7.158;2023-11-19T13:26:31;14.60;99.90
3644;DHT22;1838;50.742;7.158;2023-11-19T13:28:56;14.60;99.90
3644;DHT22;1838;50.742;7.158;2023-11-19T13:31:22;14.60;99.90
3644;DHT22;1838;50.742;7.158;2023-11-19T13:33:48;14.60;99.90
3644;DHT22;1838;50.742;7.158;2023-11-19T13:36:14;14.60;99.90
3644;DHT22;1838;50.742;7.158;2023-11-19T13:38:39;14.60;99.90
3644;DHT22;1838;50.742;7.158;2023-11-19T13:41:07;14.60;99.90
3644;DHT22;1838;50.742;7.158;2023-11-19T13:43:35;14.60;99.90
3644;DHT22;1838;50.742;7.158;2023-11-19T13:46:01;14.60;99.90
3644;DHT22;1838;50.742;7.158;2023-11-19T13:48:26;14.60;99.90
3644;DHT22;1838;50.742;7.158;2023-11-19T13:50:54;14.70;99.90
3644;DHT22;1838;50.742;7.158;2023-11-19T13:53:20;14.70;99.90
3644;DHT22;1838;50.742;7.158;2023-11-19T13:55:46;14.70;99.90
3644;DHT22;1838;50.742;7.158;2023-11-19T13:58:11;14.70;99.90
3644;DHT22;1838;50.742;7.158;2023-11-19T14:00:37;14.60;99.90
3644;DHT22;1838;50.742;7.158;2023-11-19T14:03:03;14.70;99.90
3644;DHT22;1838;50.742;7.158;2023-11-19T14:05:28;14.50;99.90
3644;DHT22;1838;50.742;7.158;2023-11-19T14:07:54;14.70;99.90
3644;DHT22;1838;50.742;7.158;2023-11-19T14:10:22;14.70;99.90
3644;DHT22;1838;50.742;7.158;2023-11-19T14:12:48;14.70;99.90
3644;DHT22;1838;50.742;7.158;2023-11-19T14:15:15;14.50;99.90
3644;DHT22;1838;50.742;7.158;2023-11-19T14:17:42;14.50;99.90
3644;DHT22;1838;50.742;7.158;2023-11-19T14:20:09;14.50;99.90
3644;DHT22;1838;50.742;7.158;2023-11-19T14:22:41;14.60;99.90
3644;DHT22;1838;50.742;7.158;2023-11-19T14:25:08;14.60;99.90
3644;DHT22;1838;50.742;7.158;2023-11-19T14:27:36;14.60;99.90
3644;DHT22;1838;50.742;7.158;2023-11-19T14:30:04;14.60;99.90
3644;DHT22;1838;50.742;7.158;2023-11-19T14:32:30;14.60;99.90
3644;DHT22;1838;50.742;7.158;2023-11-19T14:34:56;14.60;99.90
3644;DHT22;1838;50.742;7.158;2023-11-19T14:37:22;14.60;99.90
3644;DHT22;1838;50.742;7.158;2023-11-19T14:39:47;14.70;99.90
3644;DHT22;1838;50.742;7.158;2023-11-19T14:42:13;14.60;99.90
3644;DHT22;1838;50.742;7.158;2023-11-19T14:44:39;14.60;99.90
3644;DHT22;1838;50.742;7.158;2023-11-19T14:47:05;14.60;99.90
3644;DHT22;1838;50.742;7.158;2023-11-19T14:49:30;14.60;99.90
3644;DHT22;1838;50.742;7.158;2023-11-19T14:51:56;14.50;99.90
3644;DHT22;1838;50.742;7.158;2023-11-19T14:54:22;14.40;99.90
3644;DHT22;1838;50.742;7.158;2023-11-19T14:56:47;14.40;99.90
3644;DHT22;1838;50.742;7.158;2023-11-19T14:59:13;14.40;99.90
3644;DHT22;1838;50.742;7.158;2023-11-19T15:01:38;14.30;99.90
3644;DHT22;1838;50.742;7.158;2023-11-19T15:04:05;14.30;99.90
3644;DHT22;1838;50.742;7.158;2023-11-19T15:06:31;14.30;99.90
3644;DHT22;1838;50.742;7.158;2023-11-19T15:08:58;14.30;99.90
3644;DHT22;1838;50.742;7.158;2023-11-19T15:11:24;14.30;99.90
3644;DHT22;1838;50.742;7.158;2023-11-19T15:13:49;14.30;99.90
3644;DHT22;1838;50.742;7.158;2023-11-19T15:16:15;14.30;99.90
3644;DHT22;1838;50.742;7.158;2023-11-19T15:18:47;14.30;99.90
3644;DHT22;1838;50.742;7.158;2023-11-19T15:21:12;14.30;99.90
3644;DHT22;1838;50.742;7.158;2023-11-19T15:23:38;14.30;99.90
3644;DHT22;1838;50.742;7.158;2023-11-19T15:26:05;14.30;99.90
3644;DHT22;1838;50.742;7.158;2023-11-19T15:28:32;14.30;99.90
3644;DHT22;1838;50.742;7.158;2023-11-19T15:30:58;14.30;99.90
3644;DHT22;1838;50.742;7.158;2023-11-19T15:33:24;14.30;99.90
3644;DHT22;1838;50.742;7.158;2023-11-19T15:35:49;14.20;99.90
3644;DHT22;1838;50.742;7.158;2023-11-19T15:38:15;14.20;99.90
3644;DHT22;1838;50.742;7.158;2023-11-19T15:40:40;14.10;99.90
3644;DHT22;1838;50.742;7.158;2023-11-19T15:43:08;14.10;99.90
3644;DHT22;1838;50.742;7.158;2023-11-19T15:45:33;14.10;99.90
3644;DHT22;1838;50.742;7.158;2023-11-19T15:48:03;14.00;99.90
3644;DHT22;1838;50.742;7.158;2023-11-19T15:50:28;14.00;99.90
3644;DHT22;1838;50.742;7.158;2023-11-19T15:52:54;14.00;99.90
3644;DHT22;1838;50.742;7.158;2023-11-19T15:55:20;13.90;99.90
3644;DHT22;1838;50.742;7.158;2023-11-19T15:57:45;13.90;99.90
3644;DHT22;1838;50.742;7.158;2023-11-19T16:00:11;13.80;99.90
3644;DHT22;1838;50.742;7.158;2023-11-19T16:02:37;13.80;99.90
3644;DHT22;1838;50.742;7.158;2023-11-19T16:05:02;13.80;99.90
3644;DHT22;1838;50.742;7.158;2023-11-19T16:07:30;13.80;99.90
3644;DHT22;1838;50.742;7.158;2023-11-19T16:09:55;13.80;99.90
3644;DHT22;1838;50.742;7.158;2023-11-19T16:12:21;13.70;99.90
3644;DHT22;1838;50.742;7.158;2023-11-19T16:14:47;13.70;99.90